sensor_id;sensor_type;location;lat;lon;timestamp;pressure;altitude;pressure_sealevel;temperature
13497;BMP180;6820;49.374;8.452;2023-07-29T00:03:39;99986.81;;;26.34
13497;BMP180;6820;49.374;8.452;2023-07-29T00:07:40;99990.28;;;26.35
13497;BMP180;6820;49.374;8.452;2023-07-29T00:11:42;99984.22;;;26.33
13497;BMP180;6820;49.374;8.452;2023-07-29T00:15:44;99981.69;;;26.29
13497;BMP180;6820;49.374;8.452;2023-07-29T00:19:45;99970.44;;;26.27
13497;BMP180;6820;49.374;8.452;2023-07-29T00:23:47;99964.41;;;26.23
13497;BMP180;6820;49.374;8.452;2023-07-29T00:27:49;99964.44;;;26.20
13497;BMP180;6820;49.374;8.452;2023-07-29T00:31:50;99954.06;;;26.14
13497;BMP180;6820;49.374;8.452;2023-07-29T00:35:54;99954.97;;;26.13
13497;BMP180;6820;49.374;8.452;2023-07-29T00:39:56;99938.50;;;26.13
13497;BMP180;6820;49.374;8.452;2023-07-29T00:43:58;99948.03;;;26.14
13497;BMP180;6820;49.374;8.452;2023-07-29T00:48:01;99928.06;;;26.17
13497;BMP180;6820;49.374;8.452;2023-07-29T00:52:04;99942.81;;;26.14
13497;BMP180;6820;49.374;8.452;2023-07-29T00:56:06;99941.97;;;26.10
13497;BMP180;6820;49.374;8.452;2023-07-29T01:00:08;99944.59;;;26.07
13497;BMP180;6820;49.374;8.452;2023-07-29T01:04:10;99945.41;;;26.11
13497;BMP180;6820;49.374;8.452;2023-07-29T01:08:22;99934.97;;;26.21
13497;BMP180;6820;49.374;8.452;2023-07-29T01:16:42;99927.97;;;26.29
13497;BMP180;6820;49.374;8.452;2023-07-29T01:20:47;99921.97;;;26.24
13497;BMP180;6820;49.374;8.452;2023-07-29T01:24:49;99936.69;;;26.24
13497;BMP180;6820;49.374;8.452;2023-07-29T01:28:51;99911.59;;;26.20
13497;BMP180;6820;49.374;8.452;2023-07-29T01:32:58;99929.81;;;26.17
13497;BMP180;6820;49.374;8.452;2023-07-29T01:37:02;99913.38;;;26.10
13497;BMP180;6820;49.374;8.452;2023-07-29T01:41:08;99918.59;;;26.06
13497;BMP180;6820;49.374;8.452;2023-07-29T01:45:10;99915.19;;;26.01
13497;BMP180;6820;49.374;8.452;2023-07-29T01:49:11;99910.00;;;26.01
13497;BMP180;6820;49.374;8.452;2023-07-29T01:53:13;99907.47;;;25.94
13497;BMP180;6820;49.374;8.452;2023-07-29T01:57:15;99911.78;;;25.93
13497;BMP180;6820;49.374;8.452;2023-07-29T02:01:17;99902.31;;;25.88
13497;BMP180;6820;49.374;8.452;2023-07-29T02:05:19;99903.25;;;25.76
13497;BMP180;6820;49.374;8.452;2023-07-29T02:09:21;99900.75;;;25.68
13497;BMP180;6820;49.374;8.452;2023-07-29T02:13:23;99900.72;;;25.70
13497;BMP180;6820;49.374;8.452;2023-07-29T02:17:24;99899.78;;;25.77
13497;BMP180;6820;49.374;8.452;2023-07-29T02:21:27;99908.41;;;25.82
13497;BMP180;6820;49.374;8.452;2023-07-29T02:25:29;99898.09;;;25.73
13497;BMP180;6820;49.374;8.452;2023-07-29T02:29:30;99899.88;;;25.66
13497;BMP180;6820;49.374;8.452;2023-07-29T02:33:34;99904.19;;;25.70
13497;BMP180;6820;49.374;8.452;2023-07-29T02:37:36;99899.81;;;25.74
13497;BMP180;6820;49.374;8.452;2023-07-29T02:41:38;99905.81;;;25.82
13497;BMP180;6820;49.374;8.452;2023-07-29T02:45:39;99894.56;;;25.83
13497;BMP180;6820;49.374;8.452;2023-07-29T02:49:41;99885.88;;;25.83
13497;BMP180;6820;49.374;8.452;2023-07-29T02:53:42;99876.41;;;25.82
13497;BMP180;6820;49.374;8.452;2023-07-29T02:57:44;99879.03;;;25.79
13497;BMP180;6820;49.374;8.452;2023-07-29T03:01:46;99880.72;;;25.80
13497;BMP180;6820;49.374;8.452;2023-07-29T03:05:48;99872.91;;;25.83
13497;BMP180;6820;49.374;8.452;2023-07-29T03:09:50;99862.53;;;25.83
13497;BMP180;6820;49.374;8.452;2023-07-29T03:13:51;99867.75;;;25.81
13497;BMP180;6820;49.374;8.452;2023-07-29T03:17:53;99869.47;;;25.82
13497;BMP180;6820;49.374;8.452;2023-07-29T03:21:55;99869.44;;;25.87
13497;BMP180;6820;49.374;8.452;2023-07-29T03:25:58;99858.16;;;25.89
13497;BMP180;6820;49.374;8.452;2023-07-29T03:30:00;99853.78;;;25.93
13497;BMP180;6820;49.374;8.452;2023-07-29T03:34:02;99836.50;;;25.92
13497;BMP180;6820;49.374;8.452;2023-07-29T03:38:04;99824.34;;;25.95
13497;BMP180;6820;49.374;8.452;2023-07-29T03:42:06;99819.16;;;25.97
13497;BMP180;6820;49.374;8.452;2023-07-29T03:46:07;99820.00;;;25.96
13497;BMP180;6820;49.374;8.452;2023-07-29T03:50:14;99829.53;;;25.97
13497;BMP180;6820;49.374;8.452;2023-07-29T03:54:15;99833.88;;;25.93
13497;BMP180;6820;49.374;8.452;2023-07-29T03:58:17;99834.81;;;25.85
13497;BMP180;6820;49.374;8.452;2023-07-29T04:02:19;99834.00;;;25.80
13497;BMP180;6820;49.374;8.452;2023-07-29T04:06:21;99835.72;;;25.82
13497;BMP180;6820;49.374;8.452;2023-07-29T04:10:24;99833.06;;;25.91
13497;BMP180;6820;49.374;8.452;2023-07-29T04:14:26;99827.81;;;25.97
13497;BMP180;6820;49.374;8.452;2023-07-29T04:18:28;99831.19;;;26.03
13497;BMP180;6820;49.374;8.452;2023-07-29T04:22:29;99835.53;;;26.04
13497;BMP180;6820;49.374;8.452;2023-07-29T04:26:31;99841.56;;;26.08
13497;BMP180;6820;49.374;8.452;2023-07-29T04:30:32;99842.41;;;26.10
13497;BMP180;6820;49.374;8.452;2023-07-29T04:34:34;99855.38;;;26.08
13497;BMP180;6820;49.374;8.452;2023-07-29T04:38:37;99855.38;;;26.08
13497;BMP180;6820;49.374;8.452;2023-07-29T04:42:39;99858.88;;;26.07
13497;BMP180;6820;49.374;8.452;2023-07-29T04:46:43;99850.19;;;26.08
13497;BMP180;6820;49.374;8.452;2023-07-29T04:50:44;99854.53;;;26.06
13497;BMP180;6820;49.374;8.452;2023-07-29T04:54:46;99872.81;;;25.99
13497;BMP180;6820;49.374;8.452;2023-07-29T04:58:48;99871.94;;;25.97
13497;BMP180;6820;49.374;8.452;2023-07-29T05:02:49;99867.72;;;25.83
13497;BMP180;6820;49.374;8.452;2023-07-29T05:06:51;99857.41;;;25.78
13497;BMP180;6820;49.374;8.452;2023-07-29T05:10:53;99857.47;;;25.70
13497;BMP180;6820;49.374;8.452;2023-07-29T05:14:55;99853.09;;;25.74
13497;BMP180;6820;49.374;8.452;2023-07-29T05:18:57;99846.09;;;25.82
13497;BMP180;6820;49.374;8.452;2023-07-29T05:22:58;99867.72;;;25.86
13497;BMP180;6820;49.374;8.452;2023-07-29T05:27:00;99871.16;;;25.89
13497;BMP180;6820;49.374;8.452;2023-07-29T05:31:02;99872.81;;;25.96
13497;BMP180;6820;49.374;8.452;2023-07-29T05:35:04;99872.81;;;25.99
13497;BMP180;6820;49.374;8.452;2023-07-29T05:39:06;99877.97;;;26.02
13497;BMP180;6820;49.374;8.452;2023-07-29T05:43:08;99869.25;;;26.06
13497;BMP180;6820;49.374;8.452;2023-07-29T05:47:10;99872.63;;;26.21
13497;BMP180;6820;49.374;8.452;2023-07-29T05:51:12;99888.94;;;26.36
13497;BMP180;6820;49.374;8.452;2023-07-29T05:59:16;99874.81;;;26.61
13497;BMP180;6820;49.374;8.452;2023-07-29T06:03:18;99878.06;;;26.82
13497;BMP180;6820;49.374;8.452;2023-07-29T06:07:20;99865.72;;;27.00
13497;BMP180;6820;49.374;8.452;2023-07-29T06:11:22;99861.19;;;27.13
13497;BMP180;6820;49.374;8.452;2023-07-29T06:15:23;99858.34;;;27.29
13497;BMP180;6820;49.374;8.452;2023-07-29T06:19:25;99859.03;;;27.46
13497;BMP180;6820;49.374;8.452;2023-07-29T06:23:27;99864.84;;;27.61
13497;BMP180;6820;49.374;8.452;2023-07-29T06:27:28;99863.72;;;27.77
13497;BMP180;6820;49.374;8.452;2023-07-29T06:31:30;99880.09;;;27.86
13497;BMP180;6820;49.374;8.452;2023-07-29T06:35:34;99888.78;;;27.85
13497;BMP180;6820;49.374;8.452;2023-07-29T06:39:35;99874.88;;;27.86
13497;BMP180;6820;49.374;8.452;2023-07-29T06:43:37;99879.06;;;27.96
13497;BMP180;6820;49.374;8.452;2023-07-29T06:47:38;99865.94;;;28.03
13497;BMP180;6820;49.374;8.452;2023-07-29T06:51:40;99875.31;;;28.13
13497;BMP180;6820;49.374;8.452;2023-07-29T06:55:43;99873.44;;;28.21
13497;BMP180;6820;49.374;8.452;2023-07-29T06:59:44;99875.88;;;28.31
13497;BMP180;6820;49.374;8.452;2023-07-29T07:03:46;99883.38;;;28.48
13497;BMP180;6820;49.374;8.452;2023-07-29T07:07:48;99883.03;;;28.67
13497;BMP180;6820;49.374;8.452;2023-07-29T07:11:49;99873.28;;;28.76
13497;BMP180;6820;49.374;8.452;2023-07-29T07:15:54;99868.97;;;28.75
13497;BMP180;6820;49.374;8.452;2023-07-29T07:19:56;99854.16;;;28.76
13497;BMP180;6820;49.374;8.452;2023-07-29T07:23:57;99861.81;;;28.84
13497;BMP180;6820;49.374;8.452;2023-07-29T07:27:59;99857.72;;;29.15
13497;BMP180;6820;49.374;8.452;2023-07-29T07:32:01;99863.00;;;29.49
13497;BMP180;6820;49.374;8.452;2023-07-29T07:36:03;99876.69;;;29.60
13497;BMP180;6820;49.374;8.452;2023-07-29T07:40:06;99889.97;;;29.51
13497;BMP180;6820;49.374;8.452;2023-07-29T07:44:08;99881.28;;;29.49
13497;BMP180;6820;49.374;8.452;2023-07-29T07:48:09;99887.44;;;29.86
13497;BMP180;6820;49.374;8.452;2023-07-29T07:52:13;99873.97;;;30.01
13497;BMP180;6820;49.374;8.452;2023-07-29T07:56:15;99883.91;;;29.87
13497;BMP180;6820;49.374;8.452;2023-07-29T08:00:16;99887.63;;;29.77
13497;BMP180;6820;49.374;8.452;2023-07-29T08:04:20;99897.56;;;29.60
13497;BMP180;6820;49.374;8.452;2023-07-29T08:08:22;99900.91;;;29.68
13497;BMP180;6820;49.374;8.452;2023-07-29T08:12:24;99906.13;;;29.68
13497;BMP180;6820;49.374;8.452;2023-07-29T08:16:25;99903.97;;;29.47
13497;BMP180;6820;49.374;8.452;2023-07-29T08:20:27;99896.06;;;29.50
13497;BMP180;6820;49.374;8.452;2023-07-29T08:24:29;99885.38;;;29.61
13497;BMP180;6820;49.374;8.452;2023-07-29T08:28:37;99900.75;;;29.75
13497;BMP180;6820;49.374;8.452;2023-07-29T08:32:39;99903.88;;;29.89
13497;BMP180;6820;49.374;8.452;2023-07-29T08:36:40;99896.66;;;29.99
13497;BMP180;6820;49.374;8.452;2023-07-29T08:40:45;99898.41;;;30.00
13497;BMP180;6820;49.374;8.452;2023-07-29T08:44:49;99901.03;;;29.98
13497;BMP180;6820;49.374;8.452;2023-07-29T08:48:51;99908.09;;;29.96
13497;BMP180;6820;49.374;8.452;2023-07-29T08:52:53;99931.94;;;29.81
13497;BMP180;6820;49.374;8.452;2023-07-29T08:56:55;99921.09;;;29.60
13497;BMP180;6820;49.374;8.452;2023-07-29T09:00:57;99931.84;;;29.86
13497;BMP180;6820;49.374;8.452;2023-07-29T09:04:59;99921.63;;;30.11
13497;BMP180;6820;49.374;8.452;2023-07-29T09:09:01;99914.06;;;30.35
13497;BMP180;6820;49.374;8.452;2023-07-29T09:13:04;99908.16;;;30.61
13497;BMP180;6820;49.374;8.452;2023-07-29T09:17:09;99898.44;;;30.65
13497;BMP180;6820;49.374;8.452;2023-07-29T09:21:11;99889.94;;;30.58
13497;BMP180;6820;49.374;8.452;2023-07-29T09:25:13;99884.34;;;30.38
13497;BMP180;6820;49.374;8.452;2023-07-29T09:29:22;99871.38;;;30.35
13497;BMP180;6820;49.374;8.452;2023-07-29T09:33:26;99875.78;;;30.33
13497;BMP180;6820;49.374;8.452;2023-07-29T09:37:28;99873.81;;;30.41
13497;BMP180;6820;49.374;8.452;2023-07-29T09:41:32;99874.47;;;30.49
13497;BMP180;6820;49.374;8.452;2023-07-29T09:45:35;99874.16;;;30.61
13497;BMP180;6820;49.374;8.452;2023-07-29T09:49:37;99869.00;;;30.89
13497;BMP180;6820;49.374;8.452;2023-07-29T09:53:40;99867.66;;;31.05
13497;BMP180;6820;49.374;8.452;2023-07-29T09:57:44;99866.31;;;31.21
13497;BMP180;6820;49.374;8.452;2023-07-29T10:01:46;99867.66;;;31.62
13497;BMP180;6820;49.374;8.452;2023-07-29T10:05:48;99873.47;;;31.71
13497;BMP180;6820;49.374;8.452;2023-07-29T10:09:52;99866.88;;;31.58
13497;BMP180;6820;49.374;8.452;2023-07-29T10:13:54;99885.94;;;31.36
13497;BMP180;6820;49.374;8.452;2023-07-29T10:18:09;99884.53;;;31.25
13497;BMP180;6820;49.374;8.452;2023-07-29T10:22:11;99877.00;;;31.13
13497;BMP180;6820;49.374;8.452;2023-07-29T10:26:16;99874.84;;;30.98
13497;BMP180;6820;49.374;8.452;2023-07-29T10:30:19;99874.00;;;30.98
13497;BMP180;6820;49.374;8.452;2023-07-29T10:34:21;99873.41;;;31.17
13497;BMP180;6820;49.374;8.452;2023-07-29T10:38:23;99871.69;;;31.45
13497;BMP180;6820;49.374;8.452;2023-07-29T10:42:26;99867.19;;;31.50
13497;BMP180;6820;49.374;8.452;2023-07-29T10:46:27;99869.38;;;31.63
13497;BMP180;6820;49.374;8.452;2023-07-29T10:50:29;99861.19;;;31.73
13497;BMP180;6820;49.374;8.452;2023-07-29T10:54:42;99863.06;;;31.68
13497;BMP180;6820;49.374;8.452;2023-07-29T10:58:44;99854.94;;;31.77
13497;BMP180;6820;49.374;8.452;2023-07-29T11:02:58;99852.91;;;31.87
13497;BMP180;6820;49.374;8.452;2023-07-29T11:11:12;99865.81;;;31.92
13497;BMP180;6820;49.374;8.452;2023-07-29T11:15:27;99859.41;;;32.01
13497;BMP180;6820;49.374;8.452;2023-07-29T11:19:29;99859.75;;;31.90
13497;BMP180;6820;49.374;8.452;2023-07-29T11:23:36;99851.28;;;31.83
13497;BMP180;6820;49.374;8.452;2023-07-29T11:27:38;99854.81;;;31.82
13497;BMP180;6820;49.374;8.452;2023-07-29T11:31:40;99853.50;;;31.94
13497;BMP180;6820;49.374;8.452;2023-07-29T11:35:42;99860.00;;;32.09
13497;BMP180;6820;49.374;8.452;2023-07-29T11:39:44;99841.50;;;32.13
13497;BMP180;6820;49.374;8.452;2023-07-29T11:43:46;99848.34;;;32.17
13497;BMP180;6820;49.374;8.452;2023-07-29T11:47:48;99843.09;;;32.17
13497;BMP180;6820;49.374;8.452;2023-07-29T11:51:49;99833.38;;;32.20
13497;BMP180;6820;49.374;8.452;2023-07-29T11:55:51;99824.25;;;32.32
13497;BMP180;6820;49.374;8.452;2023-07-29T11:59:54;99828.28;;;32.42
13497;BMP180;6820;49.374;8.452;2023-07-29T12:03:57;99823.50;;;32.52
13497;BMP180;6820;49.374;8.452;2023-07-29T12:07:59;99829.34;;;32.60
13497;BMP180;6820;49.374;8.452;2023-07-29T12:12:02;99817.41;;;32.76
13497;BMP180;6820;49.374;8.452;2023-07-29T12:16:04;99819.53;;;32.89
13497;BMP180;6820;49.374;8.452;2023-07-29T12:20:08;99824.53;;;32.95
13497;BMP180;6820;49.374;8.452;2023-07-29T12:24:14;99823.56;;;32.98
13497;BMP180;6820;49.374;8.452;2023-07-29T12:28:15;99822.88;;;32.93
13497;BMP180;6820;49.374;8.452;2023-07-29T12:32:17;99813.84;;;33.00
13497;BMP180;6820;49.374;8.452;2023-07-29T12:36:19;99823.53;;;33.20
13497;BMP180;6820;49.374;8.452;2023-07-29T12:40:26;99824.13;;;33.28
13497;BMP180;6820;49.374;8.452;2023-07-29T12:44:33;99818.50;;;33.37
13497;BMP180;6820;49.374;8.452;2023-07-29T12:48:35;99813.72;;;33.48
13497;BMP180;6820;49.374;8.452;2023-07-29T12:52:37;99809.53;;;33.64
13497;BMP180;6820;49.374;8.452;2023-07-29T12:56:39;99828.84;;;34.05
13497;BMP180;6820;49.374;8.452;2023-07-29T13:00:40;99812.34;;;34.23
13497;BMP180;6820;49.374;8.452;2023-07-29T13:04:42;99820.50;;;34.15
13497;BMP180;6820;49.374;8.452;2023-07-29T13:08:44;99821.97;;;34.22
13497;BMP180;6820;49.374;8.452;2023-07-29T13:12:46;99823.19;;;34.14
13497;BMP180;6820;49.374;8.452;2023-07-29T13:16:47;99825.09;;;33.91
13497;BMP180;6820;49.374;8.452;2023-07-29T13:20:49;99811.81;;;33.94
13497;BMP180;6820;49.374;8.452;2023-07-29T13:24:51;99809.97;;;33.96
13497;BMP180;6820;49.374;8.452;2023-07-29T13:28:53;99810.69;;;34.20
13497;BMP180;6820;49.374;8.452;2023-07-29T13:32:54;99807.38;;;34.35
13497;BMP180;6820;49.374;8.452;2023-07-29T13:36:56;99801.00;;;34.60
13497;BMP180;6820;49.374;8.452;2023-07-29T13:40:58;99794.31;;;34.52
13497;BMP180;6820;49.374;8.452;2023-07-29T13:45:00;99801.41;;;34.71
13497;BMP180;6820;49.374;8.452;2023-07-29T13:49:02;99807.69;;;34.87
13497;BMP180;6820;49.374;8.452;2023-07-29T13:53:04;99805.59;;;35.48
13497;BMP180;6820;49.374;8.452;2023-07-29T13:57:06;99811.75;;;35.48
13497;BMP180;6820;49.374;8.452;2023-07-29T14:01:08;99809.38;;;35.42
13497;BMP180;6820;49.374;8.452;2023-07-29T14:05:09;99803.06;;;35.64
13497;BMP180;6820;49.374;8.452;2023-07-29T14:09:13;99808.50;;;35.95
13497;BMP180;6820;49.374;8.452;2023-07-29T14:13:14;99816.00;;;35.69
13497;BMP180;6820;49.374;8.452;2023-07-29T14:17:16;99826.78;;;35.28
13497;BMP180;6820;49.374;8.452;2023-07-29T14:21:18;99818.75;;;35.31
13497;BMP180;6820;49.374;8.452;2023-07-29T14:25:19;99815.09;;;35.52
13497;BMP180;6820;49.374;8.452;2023-07-29T14:29:21;99817.13;;;35.98
13497;BMP180;6820;49.374;8.452;2023-07-29T14:33:23;99815.41;;;35.97
13497;BMP180;6820;49.374;8.452;2023-07-29T14:37:24;99808.69;;;36.42
13497;BMP180;6820;49.374;8.452;2023-07-29T14:41:26;99806.59;;;36.65
13497;BMP180;6820;49.374;8.452;2023-07-29T14:45:28;99795.19;;;37.12
13497;BMP180;6820;49.374;8.452;2023-07-29T14:49:29;99800.91;;;37.66
13497;BMP180;6820;49.374;8.452;2023-07-29T14:53:31;99799.50;;;38.05
13497;BMP180;6820;49.374;8.452;2023-07-29T14:57:33;99796.38;;;37.68
13497;BMP180;6820;49.374;8.452;2023-07-29T15:01:34;99781.56;;;37.35
13497;BMP180;6820;49.374;8.452;2023-07-29T15:05:36;99789.91;;;36.80
13497;BMP180;6820;49.374;8.452;2023-07-29T15:09:38;99801.88;;;36.55
13497;BMP180;6820;49.374;8.452;2023-07-29T15:13:39;99785.72;;;36.44
13497;BMP180;6820;49.374;8.452;2023-07-29T15:17:41;99780.91;;;36.52
13497;BMP180;6820;49.374;8.452;2023-07-29T15:21:43;99787.03;;;36.36
13497;BMP180;6820;49.374;8.452;2023-07-29T15:25:45;99782.63;;;36.53
13497;BMP180;6820;49.374;8.452;2023-07-29T15:29:46;99783.41;;;37.02
13497;BMP180;6820;49.374;8.452;2023-07-29T15:33:48;99778.97;;;37.18
13497;BMP180;6820;49.374;8.452;2023-07-29T15:37:50;99788.91;;;36.83
13497;BMP180;6820;49.374;8.452;2023-07-29T15:41:51;99785.50;;;36.32
13497;BMP180;6820;49.374;8.452;2023-07-29T15:45:53;99773.53;;;36.25
13497;BMP180;6820;49.374;8.452;2023-07-29T15:49:55;99775.34;;;36.08
13497;BMP180;6820;49.374;8.452;2023-07-29T15:53:57;99779.47;;;35.62
13497;BMP180;6820;49.374;8.452;2023-07-29T15:57:58;99778.72;;;35.23
13497;BMP180;6820;49.374;8.452;2023-07-29T16:02:00;99785.19;;;34.98
13497;BMP180;6820;49.374;8.452;2023-07-29T16:06:02;99785.97;;;34.82
13497;BMP180;6820;49.374;8.452;2023-07-29T16:10:05;99788.16;;;34.91
13497;BMP180;6820;49.374;8.452;2023-07-29T16:14:07;99787.97;;;35.13
13497;BMP180;6820;49.374;8.452;2023-07-29T16:18:09;99785.34;;;35.13
13497;BMP180;6820;49.374;8.452;2023-07-29T16:22:10;99782.72;;;34.75
13497;BMP180;6820;49.374;8.452;2023-07-29T16:26:12;99798.06;;;34.28
13497;BMP180;6820;49.374;8.452;2023-07-29T16:30:14;99831.78;;;33.34
13497;BMP180;6820;49.374;8.452;2023-07-29T16:34:15;99827.94;;;32.75
13497;BMP180;6820;49.374;8.452;2023-07-29T16:38:17;99844.00;;;32.66
13497;BMP180;6820;49.374;8.452;2023-07-29T16:42:20;99870.72;;;32.28
13497;BMP180;6820;49.374;8.452;2023-07-29T16:46:22;99896.88;;;30.59
13497;BMP180;6820;49.374;8.452;2023-07-29T16:50:23;99886.72;;;29.00
13497;BMP180;6820;49.374;8.452;2023-07-29T16:54:25;99878.47;;;28.78
13497;BMP180;6820;49.374;8.452;2023-07-29T16:58:27;99873.22;;;29.22
13497;BMP180;6820;49.374;8.452;2023-07-29T17:02:28;99862.78;;;30.30
13497;BMP180;6820;49.374;8.452;2023-07-29T17:06:30;99858.72;;;31.12
13497;BMP180;6820;49.374;8.452;2023-07-29T17:10:32;99846.13;;;31.53
13497;BMP180;6820;49.374;8.452;2023-07-29T17:14:33;99837.53;;;31.48
13497;BMP180;6820;49.374;8.452;2023-07-29T17:18:35;99841.91;;;31.49
13497;BMP180;6820;49.374;8.452;2023-07-29T17:22:38;99838.38;;;31.50
13497;BMP180;6820;49.374;8.452;2023-07-29T17:26:40;99842.38;;;31.88
13497;BMP180;6820;49.374;8.452;2023-07-29T17:30:41;99839.00;;;32.10
13497;BMP180;6820;49.374;8.452;2023-07-29T17:34:43;99840.94;;;32.04
13497;BMP180;6820;49.374;8.452;2023-07-29T17:38:44;99858.88;;;31.63
13497;BMP180;6820;49.374;8.452;2023-07-29T17:42:46;99844.66;;;31.44
13497;BMP180;6820;49.374;8.452;2023-07-29T17:46:48;99848.13;;;31.45
13497;BMP180;6820;49.374;8.452;2023-07-29T17:50:49;99845.31;;;31.51
13497;BMP180;6820;49.374;8.452;2023-07-29T17:54:51;99847.13;;;31.49
13497;BMP180;6820;49.374;8.452;2023-07-29T17:58:53;99847.50;;;31.37
13497;BMP180;6820;49.374;8.452;2023-07-29T18:02:54;99857.44;;;31.26
13497;BMP180;6820;49.374;8.452;2023-07-29T18:06:57;99853.31;;;31.18
13497;BMP180;6820;49.374;8.452;2023-07-29T18:10:59;99849.97;;;31.13
13497;BMP180;6820;49.374;8.452;2023-07-29T18:15:01;99858.13;;;31.02
13497;BMP180;6820;49.374;8.452;2023-07-29T18:19:02;99855.84;;;30.92
13497;BMP180;6820;49.374;8.452;2023-07-29T18:23:04;99862.03;;;30.90
13497;BMP180;6820;49.374;8.452;2023-07-29T18:27:06;99864.75;;;30.85
13497;BMP180;6820;49.374;8.452;2023-07-29T18:31:09;99864.88;;;30.81
13497;BMP180;6820;49.374;8.452;2023-07-29T18:35:12;99867.66;;;30.76
13497;BMP180;6820;49.374;8.452;2023-07-29T18:39:19;99872.19;;;30.68
13497;BMP180;6820;49.374;8.452;2023-07-29T18:43:20;99870.59;;;30.63
13497;BMP180;6820;49.374;8.452;2023-07-29T18:47:22;99863.84;;;30.55
13497;BMP180;6820;49.374;8.452;2023-07-29T18:51:24;99868.44;;;30.47
13497;BMP180;6820;49.374;8.452;2023-07-29T18:55:26;99878.28;;;30.37
13497;BMP180;6820;49.374;8.452;2023-07-29T18:59:30;99869.81;;;30.28
13497;BMP180;6820;49.374;8.452;2023-07-29T19:03:32;99862.19;;;30.19
13497;BMP180;6820;49.374;8.452;2023-07-29T19:07:34;99869.25;;;30.14
13497;BMP180;6820;49.374;8.452;2023-07-29T19:11:36;99872.94;;;30.07
13497;BMP180;6820;49.374;8.452;2023-07-29T19:15:38;99878.31;;;30.02
13497;BMP180;6820;49.374;8.452;2023-07-29T19:19:41;99891.53;;;29.96
13497;BMP180;6820;49.374;8.452;2023-07-29T19:23:43;99882.97;;;29.89
13497;BMP180;6820;49.374;8.452;2023-07-29T19:27:44;99878.75;;;29.84
13497;BMP180;6820;49.374;8.452;2023-07-29T19:31:46;99891.03;;;29.80
13497;BMP180;6820;49.374;8.452;2023-07-29T19:35:53;99900.63;;;29.80
13497;BMP180;6820;49.374;8.452;2023-07-29T19:39:56;99896.28;;;29.79
13497;BMP180;6820;49.374;8.452;2023-07-29T19:43:58;99901.59;;;29.76
13497;BMP180;6820;49.374;8.452;2023-07-29T19:48:13;99900.75;;;29.75
13497;BMP180;6820;49.374;8.452;2023-07-29T19:52:14;99919.13;;;29.71
13497;BMP180;6820;49.374;8.452;2023-07-29T19:56:19;99910.50;;;29.68
13497;BMP180;6820;49.374;8.452;2023-07-29T20:00:21;99905.31;;;29.66
13497;BMP180;6820;49.374;8.452;2023-07-29T20:04:22;99912.41;;;29.60
13497;BMP180;6820;49.374;8.452;2023-07-29T20:08:24;99911.56;;;29.58
13497;BMP180;6820;49.374;8.452;2023-07-29T20:12:26;99903.66;;;29.62
13497;BMP180;6820;49.374;8.452;2023-07-29T20:16:28;99906.22;;;29.65
13497;BMP180;6820;49.374;8.452;2023-07-29T20:20:30;99918.41;;;29.65
13497;BMP180;6820;49.374;8.452;2023-07-29T20:24:31;99921.06;;;29.63
13497;BMP180;6820;49.374;8.452;2023-07-29T20:28:33;99919.38;;;29.59
13497;BMP180;6820;49.374;8.452;2023-07-29T20:32:35;99916.84;;;29.56
13497;BMP180;6820;49.374;8.452;2023-07-29T20:36:38;99925.53;;;29.55
13497;BMP180;6820;49.374;8.452;2023-07-29T20:40:48;99915.09;;;29.57
13497;BMP180;6820;49.374;8.452;2023-07-29T20:44:50;99901.91;;;29.61
13497;BMP180;6820;49.374;8.452;2023-07-29T20:48:51;99897.63;;;29.59
13497;BMP180;6820;49.374;8.452;2023-07-29T20:52:53;99921.16;;;29.57
13497;BMP180;6820;49.374;8.452;2023-07-29T20:56:55;99929.91;;;29.56
13497;BMP180;6820;49.374;8.452;2023-07-29T21:00:56;99936.75;;;29.60
13497;BMP180;6820;49.374;8.452;2023-07-29T21:04:58;99935.00;;;29.61
13497;BMP180;6820;49.374;8.452;2023-07-29T21:08:59;99941.13;;;29.60
13497;BMP180;6820;49.374;8.452;2023-07-29T21:13:01;99938.59;;;29.55
13497;BMP180;6820;49.374;8.452;2023-07-29T21:17:03;99943.81;;;29.55
13497;BMP180;6820;49.374;8.452;2023-07-29T21:21:05;99950.81;;;29.53
13497;BMP180;6820;49.374;8.452;2023-07-29T21:25:07;99944.00;;;29.48
13497;BMP180;6820;49.374;8.452;2023-07-29T21:29:08;99953.72;;;29.41
13497;BMP180;6820;49.374;8.452;2023-07-29T21:33:10;99945.09;;;29.38
13497;BMP180;6820;49.374;8.452;2023-07-29T21:37:12;99955.53;;;29.38
13497;BMP180;6820;49.374;8.452;2023-07-29T21:41:30;99938.13;;;29.37
13497;BMP180;6820;49.374;8.452;2023-07-29T21:45:32;99960.00;;;29.33
13497;BMP180;6820;49.374;8.452;2023-07-29T21:49:33;99966.31;;;29.22
13497;BMP180;6820;49.374;8.452;2023-07-29T21:53:35;99968.22;;;29.14
13497;BMP180;6820;49.374;8.452;2023-07-29T21:57:36;99984.13;;;29.01
13497;BMP180;6820;49.374;8.452;2023-07-29T22:01:38;99971.28;;;28.90
13497;BMP180;6820;49.374;8.452;2023-07-29T22:05:40;99989.66;;;28.84
13497;BMP180;6820;49.374;8.452;2023-07-29T22:09:41;99976.78;;;28.74
13497;BMP180;6820;49.374;8.452;2023-07-29T22:13:43;99970.00;;;28.66
13497;BMP180;6820;49.374;8.452;2023-07-29T22:17:44;99975.28;;;28.63
13497;BMP180;6820;49.374;8.452;2023-07-29T22:21:46;99989.19;;;28.62
13497;BMP180;6820;49.374;8.452;2023-07-29T22:25:58;99992.69;;;28.59
13497;BMP180;6820;49.374;8.452;2023-07-29T22:30:00;99978.97;;;28.50
13497;BMP180;6820;49.374;8.452;2023-07-29T22:34:01;99970.31;;;28.45
13497;BMP180;6820;49.374;8.452;2023-07-29T22:38:04;99959.22;;;28.34
13497;BMP180;6820;49.374;8.452;2023-07-29T22:42:06;99956.56;;;28.37
13497;BMP180;6820;49.374;8.452;2023-07-29T22:46:07;99937.34;;;28.44
13497;BMP180;6820;49.374;8.452;2023-07-29T22:50:09;99937.22;;;28.48
13497;BMP180;6820;49.374;8.452;2023-07-29T22:54:11;99953.84;;;28.45
13497;BMP180;6820;49.374;8.452;2023-07-29T22:58:12;99959.06;;;28.43
13497;BMP180;6820;49.374;8.452;2023-07-29T23:02:14;99969.59;;;28.36
13497;BMP180;6820;49.374;8.452;2023-07-29T23:06:16;99979.16;;;28.37
13497;BMP180;6820;49.374;8.452;2023-07-29T23:10:17;99978.38;;;28.32
13497;BMP180;6820;49.374;8.452;2023-07-29T23:14:19;99992.25;;;28.32
13497;BMP180;6820;49.374;8.452;2023-07-29T23:18:21;99987.16;;;28.26
13497;BMP180;6820;49.374;8.452;2023-07-29T23:22:22;99976.00;;;28.18
13497;BMP180;6820;49.374;8.452;2023-07-29T23:26:24;99980.34;;;28.17
13497;BMP180;6820;49.374;8.452;2023-07-29T23:30:26;99972.63;;;28.11
13497;BMP180;6820;49.374;8.452;2023-07-29T23:34:27;99972.75;;;28.03
13497;BMP180;6820;49.374;8.452;2023-07-29T23:38:29;99978.97;;;27.96
13497;BMP180;6820;49.374;8.452;2023-07-29T23:42:31;99983.31;;;27.91
13497;BMP180;6820;49.374;8.452;2023-07-29T23:46:33;99985.09;;;27.89
13497;BMP180;6820;49.374;8.452;2023-07-29T23:50:34;99995.56;;;27.86